Time;durP1;ratioP1;P1;durP2;ratioP2;P2;SDS_P1;SDS_P2;PMS_P1;PMS_P2;Temp;Humidity;BMP_temperature;BMP_pressure;BME280_temperature;BME280_humidity;BME280_pressure;Samples;Min_cycle;Max_cycle;Signal;HPM_P1;HPM_P2
2023/03/08 00:01:23;;;;;;;26.17;11.37;;;;;;;9.74;47.13;100293.34;5062619;28;20859;-77
2023/03/08 00:03:56;;;;;;;22.80;10.50;;;;;;;9.68;47.55;100293.19;5066021;28;20380;-77
2023/03/08 00:06:23;;;;;;;16.60;7.03;;;;;;;9.59;47.59;100289.78;5052490;28;20400;-77
2023/03/08 00:08:49;;;;;;;14.98;5.32;;;;;;;9.60;47.89;100298.53;5054042;28;20387;-77
2023/03/08 00:11:15;;;;;;;14.90;5.15;;;;;;;9.61;47.65;100300.19;5072835;28;20379;-77
2023/03/08 00:13:41;;;;;;;15.45;4.78;;;;;;;9.59;48.05;100294.25;5065356;28;20385;-77
2023/03/08 00:16:10;;;;;;;13.57;5.13;;;;;;;9.51;48.15;100293.28;5064125;28;20464;-77
2023/03/08 00:18:36;;;;;;;16.60;5.07;;;;;;;9.55;48.20;100296.41;5053418;28;20384;-77
2023/03/08 00:21:03;;;;;;;16.37;4.90;;;;;;;9.64;47.95;100298.03;5067508;28;20446;-77
2023/03/08 00:23:29;;;;;;;13.05;4.40;;;;;;;9.75;47.93;100294.97;5058859;28;20950;-77
2023/03/08 00:25:54;;;;;;;9.25;3.67;;;;;;;9.89;47.35;100287.28;5058649;28;20472;-77
2023/03/08 00:28:20;;;;;;;11.87;4.50;;;;;;;10.02;46.99;100284.88;5064234;28;20477;-77
2023/03/08 00:31:00;;;;;;;14.20;4.77;;;;;;;10.16;46.68;100285.13;5060506;28;20430;-77
2023/03/08 00:33:27;;;;;;;14.02;4.63;;;;;;;10.19;46.09;100287.38;5060647;28;20875;-77
2023/03/08 00:36:09;;;;;;;17.25;5.68;;;;;;;10.26;45.96;100288.31;5071139;28;20413;-77
2023/03/08 00:38:35;;;;;;;19.85;6.40;;;;;;;10.30;46.13;100282.50;5059245;28;20873;-78
2023/03/08 00:41:01;;;;;;;16.80;5.80;;;;;;;10.37;46.11;100289.75;5064999;28;20387;-77
2023/03/08 00:43:27;;;;;;;17.97;5.20;;;;;;;10.34;46.49;100285.66;5059180;28;20397;-77
2023/03/08 00:45:53;;;;;;;14.90;6.20;;;;;;;10.24;46.51;100280.53;5064588;28;20395;-77
2023/03/08 00:48:19;;;;;;;13.98;5.65;;;;;;;10.23;46.99;100289.50;5055753;28;20479;-77
2023/03/08 00:50:44;;;;;;;16.10;6.33;;;;;;;10.21;47.56;100294.16;5052354;28;20385;-77
2023/03/08 00:53:10;;;;;;;16.27;6.77;;;;;;;10.11;47.68;100286.44;5064735;28;20394;-77
2023/03/08 00:55:36;;;;;;;13.30;6.60;;;;;;;10.11;48.54;100293.56;5052677;28;20956;-77
2023/03/08 00:58:02;;;;;;;22.87;7.60;;;;;;;10.15;48.27;100292.22;5050277;28;20475;-77
2023/03/08 01:00:29;;;;;;;14.60;7.20;;;;;;;10.22;48.47;100285.19;5062900;28;20478;-77
2023/03/08 01:02:55;;;;;;;18.30;7.90;;;;;;;10.27;48.42;100293.44;5058596;28;20393;-77
2023/03/08 01:05:20;;;;;;;21.17;7.95;;;;;;;10.35;48.40;100295.22;5060512;28;20462;-77
2023/03/08 01:07:46;;;;;;;19.50;7.50;;;;;;;10.38;48.01;100280.81;5053972;28;20405;-77
2023/03/08 01:10:12;;;;;;;15.10;7.10;;;;;;;10.43;48.42;100281.91;5059856;28;20414;-77
2023/03/08 01:12:38;;;;;;;17.92;7.20;;;;;;;10.46;48.27;100278.06;5052250;28;20389;-77
2023/03/08 01:15:04;;;;;;;17.35;6.80;;;;;;;10.42;48.47;100274.16;5053242;28;20954;-77
2023/03/08 01:17:30;;;;;;;19.65;7.25;;;;;;;10.58;48.26;100279.28;5058173;28;20403;-77
2023/03/08 01:19:56;;;;;;;14.13;5.88;;;;;;;10.60;47.64;100271.97;5066223;28;20390;-77
2023/03/08 01:22:22;;;;;;;20.85;7.43;;;;;;;10.68;47.53;100265.78;5058971;28;20390;-77
2023/03/08 01:24:48;;;;;;;16.27;5.73;;;;;;;10.79;47.09;100272.47;5056473;28;20388;-77
2023/03/08 01:27:15;;;;;;;15.45;6.50;;;;;;;10.86;47.02;100282.16;5056341;28;20425;-77
2023/03/08 01:29:42;;;;;;;15.33;7.00;;;;;;;10.93;47.38;100268.16;5064470;28;20390;-77
2023/03/08 01:32:08;;;;;;;16.02;6.45;;;;;;;10.97;47.15;100274.75;5063593;28;20451;-77
2023/03/08 01:34:35;;;;;;;20.38;7.57;;;;;;;11.00;47.13;100269.91;5050014;28;20384;-77
2023/03/08 01:37:01;;;;;;;15.90;6.75;;;;;;;11.15;47.06;100267.25;5065365;28;20394;-77
2023/03/08 01:39:26;;;;;;;19.88;5.53;;;;;;;11.18;46.74;100269.53;5064110;28;20391;-77
2023/03/08 01:41:52;;;;;;;14.47;4.97;;;;;;;11.07;46.69;100264.69;5059368;28;20920;-78
2023/03/08 01:44:19;;;;;;;21.55;6.20;;;;;;;11.12;46.40;100264.13;5053271;28;20449;-77
2023/03/08 01:46:45;;;;;;;20.10;6.63;;;;;;;11.14;46.41;100265.59;5065910;28;20870;-77
2023/03/08 01:49:24;;;;;;;16.97;6.03;;;;;;;11.12;46.21;100261.47;5051392;28;20396;-77
2023/03/08 01:52:03;;;;;;;14.60;5.53;;;;;;;11.12;46.63;100272.09;5060801;28;20386;-77
2023/03/08 01:54:34;;;;;;;16.00;4.93;;;;;;;11.07;46.51;100254.91;5066603;28;20388;-77
2023/03/08 01:57:17;;;;;;;13.30;4.38;;;;;;;11.22;46.48;100259.38;5053494;28;20468;-77
2023/03/08 01:59:43;;;;;;;10.07;4.97;;;;;;;11.23;46.32;100263.66;5059943;28;20469;-77
2023/03/08 02:02:09;;;;;;;15.40;4.93;;;;;;;11.29;46.46;100255.78;5060846;28;20391;-77
2023/03/08 02:04:35;;;;;;;10.87;3.87;;;;;;;11.22;46.44;100252.22;5055584;28;20438;-77
2023/03/08 02:07:01;;;;;;;16.53;5.13;;;;;;;11.26;46.26;100252.69;5064667;28;20400;-77
2023/03/08 02:09:26;;;;;;;18.27;4.00;;;;;;;11.22;45.92;100254.06;5067200;28;20422;-77
2023/03/08 02:11:56;;;;;;;12.50;4.55;;;;;;;11.27;45.59;100257.81;5051452;28;20391;-77
2023/03/08 02:14:21;;;;;;;10.73;3.10;;;;;;;11.35;45.64;100264.81;5061039;28;20390;-77
2023/03/08 02:16:47;;;;;;;14.13;3.17;;;;;;;11.30;45.56;100267.22;5053114;28;20412;-77
2023/03/08 02:19:30;;;;;;;15.68;4.00;;;;;;;11.32;45.47;100264.38;5064559;28;20407;-78
2023/03/08 02:21:56;;;;;;;14.82;4.25;;;;;;;11.34;45.75;100254.41;5063475;28;20383;-77
2023/03/08 02:24:23;;;;;;;15.00;4.77;;;;;;;11.37;45.56;100270.78;5060229;28;20403;-77
2023/03/08 02:26:51;;;;;;;19.13;4.68;;;;;;;11.35;44.99;100270.13;5065976;28;20743;-77
2023/03/08 02:29:17;;;;;;;16.33;4.53;;;;;;;11.40;44.92;100264.28;5054445;28;20391;-77
2023/03/08 02:31:42;;;;;;;16.08;4.32;;;;;;;11.44;44.44;100268.19;5061156;28;20388;-77
2023/03/08 02:34:08;;;;;;;12.93;3.93;;;;;;;11.46;44.39;100269.66;5055426;28;20388;-77
2023/03/08 02:36:33;;;;;;;16.40;3.43;;;;;;;11.52;44.13;100273.38;5063883;28;20573;-77
2023/03/08 02:38:59;;;;;;;14.47;3.63;;;;;;;11.46;44.06;100271.50;5053195;28;20386;-77
2023/03/08 02:41:24;;;;;;;14.77;3.83;;;;;;;11.44;44.21;100281.47;5063020;28;20581;-77
2023/03/08 02:43:50;;;;;;;15.77;3.80;;;;;;;11.41;44.08;100266.72;5059770;28;20382;-77
2023/03/08 02:46:15;;;;;;;14.00;3.77;;;;;;;11.39;43.89;100268.75;5058724;28;20409;-77
2023/03/08 02:48:41;;;;;;;16.00;3.75;;;;;;;11.41;44.17;100273.88;5069669;28;20398;-77
2023/03/08 02:51:06;;;;;;;14.77;3.70;;;;;;;11.35;44.18;100269.31;5057747;28;20423;-77
2023/03/08 02:53:31;;;;;;;15.70;3.70;;;;;;;11.32;43.92;100270.50;5053974;28;20466;-77
2023/03/08 02:55:57;;;;;;;16.10;3.90;;;;;;;11.30;44.27;100277.81;5063529;28;20405;-77
2023/03/08 02:58:22;;;;;;;15.67;3.63;;;;;;;11.21;44.46;100281.59;5062837;28;20381;-77
2023/03/08 03:00:48;;;;;;;9.57;3.10;;;;;;;11.07;44.41;100272.63;5069759;28;20449;-77
2023/03/08 03:03:13;;;;;;;13.90;3.60;;;;;;;10.90;45.29;100277.31;5078097;28;20527;-77
2023/03/08 03:05:43;;;;;;;11.98;3.08;;;;;;;10.89;45.08;100278.31;5065359;28;20483;-77
2023/03/08 03:08:10;;;;;;;29.73;13.80;;;;;;;10.94;45.06;100275.13;5067042;28;20437;-77
2023/03/08 03:10:36;;;;;;;34.08;17.88;;;;;;;11.00;44.61;100285.81;5057391;28;20845;-76
2023/03/08 03:13:02;;;;;;;22.17;8.27;;;;;;;11.06;44.91;100295.69;5056982;28;20426;-76
2023/03/08 03:15:28;;;;;;;16.77;4.75;;;;;;;10.97;44.84;100299.44;5060771;28;20778;-76
2023/03/08 03:17:53;;;;;;;14.53;4.43;;;;;;;10.83;44.87;100287.00;5062804;28;20833;-77
2023/03/08 03:20:19;;;;;;;11.50;3.30;;;;;;;10.78;45.11;100300.78;5067089;28;20402;-77
2023/03/08 03:22:46;;;;;;;13.90;3.83;;;;;;;10.75;45.27;100306.47;5056917;28;20885;-76
2023/03/08 03:25:11;;;;;;;13.70;3.80;;;;;;;10.74;45.16;100302.16;5058302;28;20449;-77
2023/03/08 03:27:37;;;;;;;17.85;5.65;;;;;;;10.80;44.72;100304.06;5061170;28;20849;-77
2023/03/08 03:30:03;;;;;;;18.52;6.15;;;;;;;10.83;44.96;100319.63;5064387;28;20378;-76
2023/03/08 03:32:29;;;;;;;12.70;4.65;;;;;;;10.85;45.07;100314.97;5058226;28;20880;-77
2023/03/08 03:34:54;;;;;;;11.87;3.90;;;;;;;10.83;44.57;100318.81;5056372;28;20436;-77
2023/03/08 03:37:20;;;;;;;16.00;4.83;;;;;;;10.76;44.89;100308.09;5070966;28;20938;-77
2023/03/08 03:39:46;;;;;;;20.92;10.23;;;;;;;10.69;45.13;100323.09;5056880;28;20451;-77
2023/03/08 03:42:11;;;;;;;14.70;7.50;;;;;;;10.68;45.45;100326.75;5060376;28;20389;-77
2023/03/08 03:44:37;;;;;;;19.53;8.63;;;;;;;10.65;45.37;100316.50;5069077;28;20405;-77
2023/03/08 03:47:02;;;;;;;18.42;8.13;;;;;;;10.60;45.32;100318.88;5070094;28;20403;-77
2023/03/08 03:49:28;;;;;;;20.40;8.17;;;;;;;10.64;45.33;100330.75;5066326;28;20417;-76
2023/03/08 03:51:53;;;;;;;16.23;5.67;;;;;;;10.63;45.23;100332.59;5062328;28;20386;-76
2023/03/08 03:54:19;;;;;;;18.02;5.53;;;;;;;10.51;45.42;100329.56;5063480;28;20402;-77
2023/03/08 03:56:44;;;;;;;17.57;5.37;;;;;;;10.46;45.39;100331.91;5065352;28;20790;-76
2023/03/08 03:59:10;;;;;;;17.43;5.00;;;;;;;10.35;45.76;100328.84;5062057;28;20495;-76
2023/03/08 04:01:35;;;;;;;9.47;4.03;;;;;;;10.26;46.36;100326.25;5059437;28;20379;-76
2023/03/08 04:04:01;;;;;;;6.10;3.40;;;;;;;10.14;46.47;100331.13;5077837;28;20380;-76
2023/03/08 04:06:31;;;;;;;12.50;3.58;;;;;;;10.17;46.57;100345.81;5067152;28;20403;-76
2023/03/08 04:09:11;;;;;;;11.35;4.00;;;;;;;10.11;46.92;100342.06;5056698;28;20423;-77
2023/03/08 04:11:38;;;;;;;11.55;3.70;;;;;;;10.16;46.93;100348.69;5070202;28;20774;-77
2023/03/08 04:14:04;;;;;;;11.40;3.87;;;;;;;10.12;46.89;100353.50;5063096;28;20383;-77
2023/03/08 04:16:32;;;;;;;9.18;3.85;;;;;;;10.09;46.74;100337.97;5058236;28;20495;-76
2023/03/08 04:19:00;;;;;;;8.48;3.90;;;;;;;10.00;47.30;100345.13;5056596;28;20691;-76
2023/03/08 04:21:26;;;;;;;5.82;3.38;;;;;;;9.85;47.30;100341.56;5066867;28;20389;-77
2023/03/08 04:23:51;;;;;;;5.80;2.83;;;;;;;9.84;47.29;100353.97;5060700;28;20386;-77
2023/03/08 04:26:17;;;;;;;6.43;2.63;;;;;;;9.81;47.46;100348.22;5055696;28;20373;-76
2023/03/08 04:28:43;;;;;;;8.88;3.28;;;;;;;9.92;46.92;100351.31;5054106;28;20861;-76
2023/03/08 04:31:20;;;;;;;4.75;2.92;;;;;;;9.87;47.27;100345.69;5070681;28;20394;-77
2023/03/08 04:33:45;;;;;;;7.73;2.97;;;;;;;9.89;47.03;100356.13;5062489;28;20733;-76
2023/03/08 04:36:15;;;;;;;6.53;3.10;;;;;;;9.91;47.29;100346.19;5064597;28;20405;-75
2023/03/08 04:38:41;;;;;;;4.13;2.63;;;;;;;9.83;46.92;100349.72;5059776;28;20471;-76
2023/03/08 04:41:12;;;;;;;7.57;3.25;;;;;;;9.82;47.13;100353.34;5072528;28;20465;-75
2023/03/08 04:43:39;;;;;;;7.00;3.63;;;;;;;9.83;47.24;100347.06;5064794;28;20387;-76
2023/03/08 04:46:06;;;;;;;8.32;4.28;;;;;;;9.85;47.03;100345.06;5054270;28;20376;-75
2023/03/08 04:48:32;;;;;;;9.05;4.45;;;;;;;9.87;47.14;100332.47;5052241;28;20428;-76
2023/03/08 04:51:00;;;;;;;13.10;4.65;;;;;;;9.90;46.85;100337.41;5066299;28;20426;-75
2023/03/08 04:53:27;;;;;;;9.65;4.65;;;;;;;10.02;46.87;100345.78;5066174;28;20465;-76
2023/03/08 04:55:53;;;;;;;12.82;5.20;;;;;;;10.11;46.63;100344.72;5060663;28;20792;-76
2023/03/08 04:58:19;;;;;;;10.95;5.28;;;;;;;10.18;46.53;100344.84;5060719;28;20385;-76
2023/03/08 05:00:45;;;;;;;14.23;5.97;;;;;;;10.18;46.52;100344.03;5062828;28;20392;-75
2023/03/08 05:03:12;;;;;;;11.77;6.47;;;;;;;10.15;46.45;100345.19;5054397;28;20380;-76
2023/03/08 05:05:44;;;;;;;17.65;9.48;;;;;;;10.20;46.37;100361.38;5061557;28;20376;-75
2023/03/08 05:08:09;;;;;;;15.88;6.40;;;;;;;10.21;46.53;100349.78;5058776;28;20894;-76
2023/03/08 05:10:34;;;;;;;12.73;7.30;;;;;;;10.25;45.90;100348.44;5060498;28;20474;-76
2023/03/08 05:13:00;;;;;;;14.23;7.20;;;;;;;10.31;46.36;100363.63;5061586;28;20889;-76
2023/03/08 05:15:25;;;;;;;12.85;6.32;;;;;;;10.32;46.08;100372.44;5059227;28;20404;-76
2023/03/08 05:17:51;;;;;;;15.67;5.30;;;;;;;10.27;46.50;100364.16;5065327;28;20407;-76
2023/03/08 05:20:17;;;;;;;13.25;5.25;;;;;;;10.24;46.59;100361.84;5061011;28;20756;-76
2023/03/08 05:22:43;;;;;;;12.38;4.43;;;;;;;10.25;46.66;100372.28;5054216;28;20381;-79
2023/03/08 05:25:09;;;;;;;13.70;4.72;;;;;;;10.25;46.86;100369.63;5069739;28;20377;-77
2023/03/08 05:27:36;;;;;;;11.70;5.37;;;;;;;10.33;46.65;100374.91;5056415;28;20387;-78
2023/03/08 05:30:05;;;;;;;15.93;6.07;;;;;;;10.50;46.75;100364.19;5052235;28;20388;-77
2023/03/08 05:32:31;;;;;;;10.77;5.40;;;;;;;10.68;46.24;100372.63;5067092;28;20499;-77
2023/03/08 05:34:56;;;;;;;9.25;5.28;;;;;;;10.75;46.09;100366.59;5055528;28;20396;-77
2023/03/08 05:37:24;;;;;;;27.77;8.13;;;;;;;10.77;46.17;100369.91;5068182;28;20791;-77
2023/03/08 05:39:50;;;;;;;22.20;6.67;;;;;;;10.74;46.18;100373.75;5063472;28;20411;-77
2023/03/08 05:42:16;;;;;;;13.85;4.82;;;;;;;10.64;46.17;100379.31;5059919;28;20380;-77
2023/03/08 05:44:42;;;;;;;15.02;6.70;;;;;;;10.51;46.85;100381.72;5061137;28;20379;-78
2023/03/08 05:47:07;;;;;;;22.33;11.17;;;;;;;10.50;46.81;100382.75;5060743;28;20469;-76
2023/03/08 05:49:33;;;;;;;17.00;9.17;;;;;;;10.57;46.46;100383.66;5071044;28;20417;-80
2023/03/08 05:51:58;;;;;;;22.52;9.98;;;;;;;10.73;46.28;100393.28;5071068;28;20367;-76
2023/03/08 05:54:23;;;;;;;17.93;10.40;;;;;;;10.86;46.16;100392.72;5070683;28;20700;-77
2023/03/08 05:56:49;;;;;;;20.75;9.88;;;;;;;11.05;45.81;100400.13;5069882;28;20681;-79
2023/03/08 05:59:14;;;;;;;22.83;10.37;;;;;;;11.17;45.91;100405.00;5070593;28;20411;-77
2023/03/08 06:01:40;;;;;;;24.53;10.63;;;;;;;11.22;45.72;100405.31;5070828;28;20539;-81
2023/03/08 06:04:05;;;;;;;18.27;8.47;;;;;;;11.28;45.69;100404.56;5072558;28;20450;-77
2023/03/08 06:06:31;;;;;;;17.70;7.17;;;;;;;11.29;45.84;100396.41;5069367;28;20382;-76
2023/03/08 06:08:57;;;;;;;31.45;10.10;;;;;;;11.39;45.82;100400.63;5061730;28;20388;-77
2023/03/08 06:11:23;;;;;;;13.57;7.20;;;;;;;11.41;45.51;100396.78;5062236;28;20827;-77
2023/03/08 06:13:48;;;;;;;24.27;9.18;;;;;;;11.49;45.69;100409.16;5068108;28;20448;-76
2023/03/08 06:16:14;;;;;;;16.30;7.10;;;;;;;11.54;45.57;100411.22;5060396;28;20482;-77
2023/03/08 06:18:41;;;;;;;16.17;7.20;;;;;;;11.56;45.68;100412.72;5058920;28;20884;-76
2023/03/08 06:21:13;;;;;;;16.23;6.80;;;;;;;11.60;45.87;100410.50;5054301;28;20743;-77
2023/03/08 06:23:39;;;;;;;17.83;7.30;;;;;;;11.65;45.86;100408.13;5054796;28;20404;-79
2023/03/08 06:26:06;;;;;;;16.20;6.55;;;;;;;11.65;45.97;100408.13;5053883;28;20729;-76
2023/03/08 06:28:32;;;;;;;23.17;8.00;;;;;;;11.65;46.31;100413.44;5053989;28;20373;-77
2023/03/08 06:30:58;;;;;;;23.85;9.02;;;;;;;11.69;46.48;100413.91;5063915;28;20371;-76
2023/03/08 06:33:27;;;;;;;27.38;11.02;;;;;;;11.75;46.27;100397.22;5062032;28;20376;-76
2023/03/08 06:36:07;;;;;;;22.67;8.18;;;;;;;11.81;46.40;100405.28;5063016;28;20419;-76
2023/03/08 06:38:35;;;;;;;15.20;7.93;;;;;;;11.83;46.69;100410.41;5062042;28;20383;-76
2023/03/08 06:41:01;;;;;;;11.25;6.30;;;;;;;11.90;46.93;100418.44;5061719;28;20891;-77
2023/03/08 06:43:27;;;;;;;11.95;5.30;;;;;;;11.91;46.70;100418.28;5064084;28;20375;-77
2023/03/08 06:45:52;;;;;;;16.00;6.07;;;;;;;11.96;46.43;100423.88;5065109;28;20377;-77
2023/03/08 06:48:18;;;;;;;11.67;6.10;;;;;;;11.95;46.20;100403.59;5064322;28;20411;-77
2023/03/08 06:50:44;;;;;;;13.97;6.27;;;;;;;12.14;46.02;100415.50;5066437;28;20467;-77
2023/03/08 06:53:10;;;;;;;16.05;7.40;;;;;;;12.27;45.93;100412.16;5062796;28;20414;-78
2023/03/08 06:55:37;;;;;;;14.23;7.00;;;;;;;12.33;45.78;100413.22;5062511;28;20405;-77
2023/03/08 06:58:03;;;;;;;25.42;10.50;;;;;;;12.37;45.58;100415.31;5064208;28;20387;-79
2023/03/08 07:00:29;;;;;;;26.35;10.65;;;;;;;12.43;45.52;100425.19;5065958;28;20383;-78
2023/03/08 07:02:55;;;;;;;15.15;7.35;;;;;;;12.43;45.12;100429.69;5063652;28;20690;-78
2023/03/08 07:05:21;;;;;;;15.70;7.03;;;;;;;12.39;45.11;100434.56;5063647;28;20474;-77
2023/03/08 07:07:47;;;;;;;14.98;8.05;;;;;;;12.39;45.26;100441.72;5065992;28;20379;-78
2023/03/08 07:10:14;;;;;;;19.25;9.88;;;;;;;12.43;45.13;100445.66;5071736;28;20375;-77
2023/03/08 07:12:42;;;;;;;22.60;11.48;;;;;;;12.48;45.04;100439.75;5074702;28;20413;-78
2023/03/08 07:15:15;;;;;;;26.65;12.75;;;;;;;12.64;44.89;100444.84;5070978;28;20403;-77
2023/03/08 07:17:45;;;;;;;17.73;8.85;;;;;;;12.71;44.70;100442.22;5070780;28;20382;-77
2023/03/08 07:20:12;;;;;;;19.98;10.00;;;;;;;12.81;44.68;100448.88;5074859;28;20403;-77
2023/03/08 07:22:40;;;;;;;21.27;10.95;;;;;;;12.84;44.97;100449.50;5074160;28;20370;-77
2023/03/08 07:25:13;;;;;;;17.25;10.30;;;;;;;12.81;44.98;100448.88;5074518;28;20366;-77
2023/03/08 07:27:38;;;;;;;19.77;11.10;;;;;;;12.82;44.69;100453.19;5067727;28;20384;-76
2023/03/08 07:30:08;;;;;;;27.97;13.07;;;;;;;12.83;44.87;100451.34;5074275;28;20482;-78
2023/03/08 07:32:34;;;;;;;12.38;6.90;;;;;;;12.74;45.44;100452.50;5057054;28;20385;-77
2023/03/08 07:34:59;;;;;;;12.00;7.27;;;;;;;12.66;45.57;100458.75;5054692;28;20416;-77
2023/03/08 07:37:25;;;;;;;17.07;8.77;;;;;;;12.65;45.74;100461.63;5053801;28;20930;-77
2023/03/08 07:39:50;;;;;;;15.73;8.13;;;;;;;12.70;45.68;100459.22;5057136;28;20377;-78
2023/03/08 07:42:16;;;;;;;14.98;6.78;;;;;;;12.76;45.46;100463.75;5079526;28;20382;-77
2023/03/08 07:44:41;;;;;;;10.83;6.50;;;;;;;12.68;45.77;100464.72;5079934;28;20834;-77
2023/03/08 07:47:08;;;;;;;11.30;5.93;;;;;;;12.65;45.80;100472.25;5078321;28;20415;-77
2023/03/08 07:49:34;;;;;;;10.50;6.13;;;;;;;12.62;45.74;100468.97;5074557;28;20439;-77
2023/03/08 07:51:59;;;;;;;14.55;7.68;;;;;;;12.60;46.03;100465.66;5074948;28;20386;-77
2023/03/08 07:54:25;;;;;;;13.57;7.90;;;;;;;12.77;46.25;100476.88;5074808;28;20375;-77
2023/03/08 07:56:51;;;;;;;20.00;7.77;;;;;;;12.79;46.00;100466.03;5076670;28;20403;-76
2023/03/08 07:59:17;;;;;;;20.95;8.32;;;;;;;12.94;46.04;100476.59;5073263;28;20900;-77
2023/03/08 08:01:43;;;;;;;19.67;9.00;;;;;;;12.98;45.97;100475.19;5074090;28;20387;-77
2023/03/08 08:04:11;;;;;;;16.17;8.32;;;;;;;13.09;46.21;100472.03;5072091;28;20890;-77
2023/03/08 08:06:37;;;;;;;13.88;7.50;;;;;;;13.19;46.35;100474.34;5069094;28;20466;-77
2023/03/08 08:09:03;;;;;;;15.75;6.03;;;;;;;13.23;46.01;100474.78;5072559;28;20413;-78
2023/03/08 08:11:28;;;;;;;14.00;5.18;;;;;;;13.37;45.87;100469.41;5071771;28;20474;-77
2023/03/08 08:13:53;;;;;;;9.47;4.60;;;;;;;13.51;45.52;100466.84;5064943;28;20380;-77
2023/03/08 08:16:19;;;;;;;8.70;4.63;;;;;;;13.65;45.39;100473.88;5052439;28;20409;-78
2023/03/08 08:18:45;;;;;;;11.70;5.07;;;;;;;13.68;44.91;100460.16;5053052;28;20388;-77
2023/03/08 08:21:13;;;;;;;12.63;4.87;;;;;;;13.79;44.79;100461.44;5051764;28;20381;-77
2023/03/08 08:23:40;;;;;;;16.20;5.47;;;;;;;13.90;44.58;100452.91;5058614;28;20420;-77
2023/03/08 08:26:08;;;;;;;9.93;4.50;;;;;;;13.99;44.40;100466.91;5052222;28;20468;-77
2023/03/08 08:28:35;;;;;;;8.85;4.20;;;;;;;13.97;44.30;100468.91;5049809;28;20458;-77
2023/03/08 08:31:04;;;;;;;7.65;3.83;;;;;;;14.07;44.02;100469.38;5037842;28;20412;-79
2023/03/08 08:33:31;;;;;;;7.47;3.70;;;;;;;14.07;43.58;100463.22;5053076;28;20383;-77
2023/03/08 08:35:57;;;;;;;9.02;3.75;;;;;;;14.17;43.53;100462.84;5052512;28;20400;-77
2023/03/08 08:38:23;;;;;;;8.15;3.65;;;;;;;14.18;43.39;100467.16;5054006;28;20384;-77
2023/03/08 08:40:49;;;;;;;11.57;4.00;;;;;;;14.24;43.20;100469.03;5053063;28;20376;-77
2023/03/08 08:43:17;;;;;;;7.63;3.37;;;;;;;14.17;43.18;100465.50;5051396;28;20919;-78
2023/03/08 08:45:48;;;;;;;7.13;3.20;;;;;;;14.26;43.22;100465.16;5053779;28;20452;-77
2023/03/08 08:48:13;;;;;;;8.50;3.22;;;;;;;14.34;42.87;100454.28;5052563;28;20873;-76
2023/03/08 08:50:40;;;;;;;6.63;3.03;;;;;;;14.43;42.58;100465.59;5052575;28;20427;-78
2023/03/08 08:53:07;;;;;;;9.93;3.42;;;;;;;14.51;42.38;100459.25;5052642;28;20454;-78
2023/03/08 08:55:32;;;;;;;7.55;2.97;;;;;;;14.56;42.01;100453.31;5053681;28;20466;-78
2023/03/08 08:57:58;;;;;;;7.28;2.70;;;;;;;14.56;41.76;100443.47;5051578;28;20780;-78
2023/03/08 09:00:24;;;;;;;11.80;3.33;;;;;;;14.66;41.42;100432.44;5052729;28;20369;-77
2023/03/08 09:03:08;;;;;;;5.23;2.70;;;;;;;14.79;41.20;100453.78;5052772;28;20404;-78
2023/03/08 09:05:38;;;;;;;5.40;2.60;;;;;;;14.87;41.12;100437.59;5052856;28;20380;-77
2023/03/08 09:08:03;;;;;;;8.52;2.83;;;;;;;15.05;40.77;100441.47;5053624;28;20872;-77
2023/03/08 09:10:31;;;;;;;6.78;2.75;;;;;;;14.98;40.36;100436.16;5053285;28;20372;-78
2023/03/08 09:13:00;;;;;;;8.75;3.03;;;;;;;15.01;39.59;100434.91;5053328;28;20445;-77
2023/03/08 09:15:26;;;;;;;11.23;3.60;;;;;;;15.23;40.03;100435.50;5052814;28;20873;-77
2023/03/08 09:17:52;;;;;;;8.65;3.25;;;;;;;15.28;39.33;100422.34;5052570;28;20433;-77
2023/03/08 09:20:18;;;;;;;11.65;3.95;;;;;;;15.42;38.73;100420.47;5051328;28;20463;-77
2023/03/08 09:22:44;;;;;;;10.40;3.58;;;;;;;15.49;38.43;100426.63;5051893;28;20387;-78
2023/03/08 09:25:11;;;;;;;9.37;3.67;;;;;;;15.68;38.02;100416.91;5052548;28;20381;-77
2023/03/08 09:27:39;;;;;;;9.53;3.90;;;;;;;15.86;38.00;100422.44;5050953;28;20372;-76
2023/03/08 09:30:08;;;;;;;7.82;3.97;;;;;;;15.97;37.41;100409.41;5066668;28;20404;-76
2023/03/08 09:32:34;;;;;;;9.15;3.67;;;;;;;16.19;37.09;100423.31;5042765;28;20401;-76
2023/03/08 09:34:59;;;;;;;11.52;3.88;;;;;;;16.13;36.19;100411.59;5048784;28;20394;-76
2023/03/08 09:37:25;;;;;;;15.68;4.28;;;;;;;16.20;35.89;100420.41;5035132;28;20390;-76
2023/03/08 09:39:51;;;;;;;7.80;3.63;;;;;;;16.37;35.86;100411.88;5043127;28;20389;-76
2023/03/08 09:42:26;;;;;;;6.22;3.30;;;;;;;16.54;35.73;100410.31;5033532;28;20380;-76
2023/03/08 09:45:17;;;;;;;8.48;3.00;;;;;;;16.66;35.84;100413.13;5031010;28;20738;-76
2023/03/08 09:48:14;;;;;;;8.00;3.03;;;;;;;16.74;35.10;100409.34;5030781;28;20410;-76
2023/03/08 09:50:52;;;;;;;8.65;3.35;;;;;;;16.84;34.59;100407.03;5035803;28;20485;-76
2023/03/08 09:53:24;;;;;;;8.93;3.33;;;;;;;16.98;34.41;100410.44;5047111;28;20480;-76
2023/03/08 09:56:03;;;;;;;11.52;3.33;;;;;;;17.00;33.73;100409.16;5048228;28;20393;-75
2023/03/08 09:58:44;;;;;;;7.17;3.10;;;;;;;17.03;33.78;100388.34;5050187;28;20372;-76
2023/03/08 10:01:28;;;;;;;6.93;2.95;;;;;;;17.14;33.79;100403.66;5050219;28;20403;-76
2023/03/08 10:03:59;;;;;;;7.93;2.90;;;;;;;17.19;33.96;100412.66;5050381;28;20360;-76
2023/03/08 10:06:34;;;;;;;9.63;3.77;;;;;;;17.13;34.33;100408.22;5049698;28;20420;-77
2023/03/08 10:09:02;;;;;;;6.65;3.03;;;;;;;17.15;33.50;100403.44;5050526;28;20459;-76
2023/03/08 10:12:15;;;;;;;4.47;1.77;;;;;;;17.16;30.25;100396.22;5050470;28;20845;-75
2023/03/08 10:14:48;;;;;;;6.90;1.80;;;;;;;17.36;29.37;100399.53;5032808;28;20390;-75
2023/03/08 10:17:19;;;;;;;5.77;2.33;;;;;;;17.56;28.79;100404.66;5050209;28;20426;-76
2023/03/08 10:20:15;;;;;;;8.10;1.52;;;;;;;17.59;26.87;100406.06;5050604;28;20384;-76
2023/03/08 10:22:41;;;;;;;6.03;1.55;;;;;;;17.58;27.07;100397.22;5049606;28;20419;-76
2023/03/08 10:25:16;;;;;;;3.75;1.40;;;;;;;17.58;26.69;100399.09;5050425;28;20757;-76
2023/03/08 10:27:41;;;;;;;4.65;1.90;;;;;;;17.88;27.38;100384.94;5050236;28;20707;-76
2023/03/08 10:30:14;;;;;;;5.10;1.80;;;;;;;18.15;27.25;100380.03;5049572;28;20890;-77
2023/03/08 10:32:45;;;;;;;2.97;1.50;;;;;;;18.11;27.84;100371.63;5050585;28;20456;-77
2023/03/08 10:35:13;;;;;;;4.00;1.58;;;;;;;18.04;28.19;100376.28;5050551;28;20465;-77
2023/03/08 10:37:38;;;;;;;7.70;1.80;;;;;;;18.08;28.67;100365.91;5050425;28;20385;-77
2023/03/08 10:40:15;;;;;;;5.00;1.37;;;;;;;18.10;28.24;100353.91;5050342;28;20726;-77
2023/03/08 10:42:48;;;;;;;40.67;4.32;;;;;;;18.24;29.58;100359.88;5050086;28;20947;-77
2023/03/08 10:45:20;;;;;;;4.50;1.53;;;;;;;18.27;28.87;100354.03;5050200;28;20387;-77
2023/03/08 10:47:53;;;;;;;6.70;1.52;;;;;;;18.45;29.71;100349.66;5049751;28;20535;-77
2023/03/08 10:50:21;;;;;;;3.13;1.30;;;;;;;18.52;29.36;100342.31;5050371;28;20856;-77
2023/03/08 10:52:49;;;;;;;5.20;1.57;;;;;;;18.59;29.92;100358.31;5050568;28;20380;-78
2023/03/08 10:55:25;;;;;;;6.25;1.58;;;;;;;18.70;29.27;100341.41;5049182;28;20401;-77
2023/03/08 10:58:02;;;;;;;9.55;3.28;;;;;;;18.88;28.38;100338.63;5050077;28;20373;-77
2023/03/08 11:00:35;;;;;;;6.63;2.58;;;;;;;19.07;28.67;100338.50;5050063;28;20726;-78
2023/03/08 11:03:18;;;;;;;4.75;1.52;;;;;;;19.07;27.70;100336.63;5050330;28;20395;-77
2023/03/08 11:06:00;;;;;;;3.40;1.60;;;;;;;19.07;28.17;100336.63;5050517;28;20373;-76
2023/03/08 11:08:30;;;;;;;4.10;1.40;;;;;;;19.09;28.15;100345.28;5053813;28;20377;-77
2023/03/08 11:11:10;;;;;;;5.63;1.63;;;;;;;19.02;27.43;100338.41;5052771;28;20384;-77
2023/03/08 11:13:41;;;;;;;10.93;2.17;;;;;;;19.09;27.78;100336.41;5053745;28;20372;-76
2023/03/08 11:16:20;;;;;;;9.57;2.28;;;;;;;19.10;29.09;100336.16;5053277;28;20397;-80
2023/03/08 11:19:01;;;;;;;6.95;1.70;;;;;;;19.18;28.24;100336.88;5053459;28;20429;-78
2023/03/08 11:21:31;;;;;;;4.05;1.60;;;;;;;19.23;28.30;100335.09;5053644;28;20510;-76
2023/03/08 11:24:17;;;;;;;12.05;4.55;;;;;;;19.10;28.06;100332.66;5053610;28;20415;-77